Flight Track Log - Related Links

Times and Time Zones

All times are in EDT time to prevent confusion due to time zone crossing. See the N559LC flight status page for this flight to view local times or setup timezone preferences in your user account.

Time Position Orientation Groundspeed Altitude Reporting Facility
EDT Latitude Longitude Course Direction KTS MPH feet Rate Location/Type
Mon 03:42:00 PM 39.6381 -82.7304 169° South  Level Estimated
Mon 03:43:00 PM 39.5230 -82.7036 170° South  Level Estimated
Mon 03:44:00 PM 39.4079 -82.6770 170° South  Level Estimated
Mon 03:45:00 PM 39.2928 -82.6504 170° South  Level Estimated
Mon 03:46:00 PM 39.1777 -82.6239 170° South  Level Estimated
Mon 03:47:00 PM 39.0626 -82.5975 170° South  Level Estimated
Mon 03:48:00 PM 38.9475 -82.5713 170° South  Level Estimated
Mon 03:49:00 PM 38.8323 -82.5450 170° South  Level Estimated
Mon 03:50:00 PM 38.7172 -82.5189 170° South  Level Estimated
Mon 03:51:00 PM 38.6021 -82.4929 170° South  Level Estimated
Mon 03:52:00 PM 38.4869 -82.4669 170° South  Level Estimated
Mon 03:53:00 PM 38.3718 -82.4410 170° South  Level Estimated
Mon 03:54:00 PM 38.2566 -82.4152 170° South  Level Estimated
Mon 03:55:00 PM 38.1415 -82.3895 170° South  Level Estimated
Mon 03:56:00 PM 38.0263 -82.3639 170° South  Level Estimated
Mon 03:57:00 PM 37.9112 -82.3383 170° South  Level Estimated
Mon 03:58:00 PM 37.7960 -82.3129 170° South  Level Estimated
Mon 03:59:00 PM 37.6808 -82.2875 170° South  Level Estimated
Mon 04:00:00 PM 37.5656 -82.2622 170° South  Level Estimated
Mon 04:01:00 PM 37.4504 -82.2369 170° South  Level Estimated
Mon 04:02:00 PM 37.3352 -82.2117 170° South  Level Estimated
Mon 04:03:00 PM 37.2200 -82.1867 170° South  Level Estimated
Mon 04:04:00 PM 37.1048 -82.1617 170° South  Level Estimated
Mon 04:05:00 PM 36.9896 -82.1367 170° South  Level Estimated
Mon 04:06:00 PM 36.8744 -82.1119 170° South  Level Estimated
Mon 04:07:00 PM 36.7592 -82.0871 170° South  Level Estimated
Mon 04:08:00 PM 36.6439 -82.0624 170° South  Level Estimated
Mon 04:09:00 PM 36.5287 -82.0378 170° South  Level Estimated
Mon 04:10:00 PM 36.4135 -82.0132 170° South  Level Estimated
Mon 04:11:00 PM 36.2982 -81.9887 170° South  Level Estimated
Mon 04:12:00 PM 36.1830 -81.9643 170° South  Level Estimated
Mon 04:13:00 PM 36.0677 -81.9400 170° South  Level Estimated
Mon 04:14:00 PM 35.9525 -81.9157 170° South  Level Estimated
Mon 04:15:00 PM 35.8372 -81.8915 170° South  Level Estimated
Mon 04:16:00 PM 35.7219 -81.8674 170° South  Level Estimated
Mon 04:17:00 PM 35.6067 -81.8433 170° South  Level Estimated
Mon 04:18:00 PM 35.4914 -81.8193 170° South  Level Estimated
Mon 04:19:00 PM 35.3761 -81.7954 170° South  Level Estimated
Mon 04:20:00 PM 35.2608 -81.7715 170° South  Level Estimated
Mon 04:21:00 PM 35.1455 -81.7477 170° South  Level Estimated
Mon 04:22:00 PM 35.0302 -81.7240 170° South  Level Estimated
Mon 04:23:00 PM 34.9149 -81.7004 170° South  Level Estimated
Mon 04:24:00 PM 34.7996 -81.6768 170° South  Level Estimated
Mon 04:25:00 PM 34.6843 -81.6533 170° South  Level Estimated
Mon 04:26:00 PM 34.5690 -81.6298 170° South  Level Estimated
Mon 04:27:00 PM 34.4537 -81.6064 171° South  Level Estimated
Mon 04:28:00 PM 34.3384 -81.5831 171° South  Level Estimated
Mon 04:29:00 PM 34.2230 -81.5599 171° South  Level Estimated
Mon 04:30:00 PM 34.1077 -81.5367 171° South  Level Estimated
Mon 04:31:00 PM 33.9924 -81.5135 171° South  Level Estimated
Mon 04:32:00 PM 33.8770 -81.4904 171° South  Level Estimated
Mon 04:33:00 PM 33.7617 -81.4674 171° South  Level Estimated
Mon 04:34:00 PM 33.6463 -81.4445 171° South  Level Estimated
Mon 04:35:00 PM 33.5310 -81.4216 171° South  Level Estimated
Mon 04:36:00 PM 33.4156 -81.3988 171° South  Level Estimated
Mon 04:37:00 PM 33.3003 -81.3760 171° South  Level Estimated
Mon 04:38:00 PM 33.1849 -81.3533 171° South  Level Estimated
Mon 04:39:00 PM 33.0695 -81.3307 171° South  Level Estimated
Mon 04:40:00 PM 32.9542 -81.3081 171° South  Level Estimated
Mon 04:41:00 PM 32.8388 -81.2856 171° South  Level Estimated
Mon 04:42:00 PM 32.7234 -81.2631 171° South  Level Estimated
Mon 04:43:00 PM 32.6080 -81.2407 171° South  Level Estimated
Mon 04:44:00 PM 32.4926 -81.2183 171° South  Level Estimated
Mon 04:45:00 PM 32.3772 -81.1960 171° South  Level Estimated
Mon 04:46:00 PM 32.2618 -81.1738 171° South  Level Estimated
Mon 04:47:00 PM 32.1464 -81.1516 171° South  Level Estimated
Mon 04:48:00 PM 32.0310 -81.1295 171° South  Level Estimated
Mon 04:49:00 PM 31.9156 -81.1074 171° South  Level Estimated
Mon 04:50:00 PM 31.8002 -81.0854 171° South  Level Estimated
Mon 04:51:00 PM 31.6848 -81.0635 171° South  Level Estimated
Mon 04:52:00 PM 31.5694 -81.0415 171° South  Level Estimated
Mon 04:53:00 PM 31.4540 -81.0197 171° South  Level Estimated
Mon 04:54:00 PM 31.3385 -80.9979 171° South  Level Estimated
Mon 04:55:00 PM 31.2231 -80.9762 171° South  Level Estimated
Mon 04:56:00 PM 31.1077 -80.9545 171° South  Level Estimated
Mon 04:57:00 PM 30.9922 -80.9328 171° South  Level Estimated
Mon 04:58:00 PM 30.8768 -80.9112 171° South  Level Estimated
Mon 04:59:00 PM 30.7613 -80.8897 171° South  Level Estimated
Mon 05:00:00 PM 30.6459 -80.8682 171° South  Level Estimated
Mon 05:01:00 PM 30.5304 -80.8468 171° South  Level Estimated
Mon 05:02:00 PM 30.4150 -80.8254 171° South  Level Estimated
Mon 05:03:00 PM 30.2995 -80.8041 171° South  Level Estimated
Mon 05:04:00 PM 30.1840 -80.7828 171° South  Level Estimated
Mon 05:05:00 PM 30.0686 -80.7616 171° South  Level Estimated
Mon 05:06:00 PM 29.9531 -80.7404 171° South  Level Estimated
Mon 05:07:00 PM 29.8376 -80.7193 171° South  Level Estimated
Mon 05:08:00 PM 29.7222 -80.6982 171° South  Level Estimated
Mon 05:09:00 PM 29.6067 -80.6771 171° South  Level Estimated
Mon 05:10:00 PM 29.4912 -80.6562 171° South  Level Estimated
Mon 05:11:00 PM 29.3757 -80.6352 171° South  Level Estimated
Mon 05:12:00 PM 29.2602 -80.6143 171° South  Level Estimated
Mon 05:13:00 PM 29.1447 -80.5935 171° South  Level Estimated
Mon 05:14:00 PM 29.0292 -80.5727 171° South  Level Estimated
Mon 05:15:00 PM 28.9137 -80.5519 171° South  Level Estimated
Mon 05:16:00 PM 28.7982 -80.5312 171° South  Level Estimated
Mon 05:17:00 PM 28.6827 -80.5106 171° South  Level Estimated
Mon 05:18:00 PM 28.5672 -80.4900 171° South  Level Estimated
Mon 05:19:00 PM 28.4517 -80.4694 171° South  Level Estimated
Mon 05:20:00 PM 28.3362 -80.4489 171° South  Level Estimated
Mon 05:21:00 PM 28.2207 -80.4284 171° South  Level Estimated
Mon 05:22:00 PM 28.1051 -80.4080 171° South  Level Estimated
Mon 05:23:00 PM 27.9896 -80.3876 171° South  Level Estimated
Mon 05:24:00 PM 27.8741 -80.3672 171° South  Level Estimated
Mon 05:25:00 PM 27.7586 -80.3469 171° South  Level Estimated
Mon 05:26:00 PM 27.6430 -80.3267 171° South  Level Estimated
Mon 05:27:00 PM 27.5275 -80.3064 171° South  Level Estimated
Mon 05:28:00 PM 27.4119 -80.2863 171° South  Level Estimated
Mon 05:29:00 PM 27.2964 -80.2662 171° South  Level Estimated
Mon 05:30:00 PM 27.1809 -80.2461 171° South  Level Estimated
Mon 05:31:00 PM 27.0653 -80.2260 171° South  Level Estimated
Mon 05:32:00 PM 26.9498 -80.2060 171° South  Level Estimated
Mon 05:33:00 PM 26.8342 -80.1860 171° South  Level Estimated
Mon 05:34:00 PM 26.7187 -80.1661 171° South  Level Estimated
Mon 05:35:00 PM 26.6031 -80.1462 171° South  Level Estimated
Mon 05:36:00 PM 26.4875 -80.1264 171° South  Level Estimated
Mon 05:37:00 PM 26.3785 -80.1077 171° South  Level Estimated
Mon 05:38:00 PM 26.3785 -80.1077 270° West  Level Estimated
Mon 05:39:00 PM 26.3785 -80.1077 270° West  Level Estimated
Mon 05:40:00 PM 26.3785 -80.1077 270° West  Level Estimated
Mon 05:41:00 PM 26.3785 -80.1077 270° West  Level Estimated
Mon 05:42:00 PM 26.3785 -80.1077 270° West  Level Estimated
Mon 05:43:00 PM 26.3785 -80.1077 270° West  Level Estimated
Mon 05:44:00 PM 26.3785 -80.1077 270° West  Level Estimated
Mon 05:45:00 PM 26.3785 -80.1077 270° West  Level Estimated
Mon 05:46:00 PM 26.3785 -80.1077 270° West  Level Estimated
Mon 05:47:00 PM 26.3785 -80.1077 270° West  Level Estimated
Mon 05:48:00 PM 26.3785 -80.1077 270° West  Level Estimated
Mon 05:49:00 PM 26.3785 -80.1077 270° West  Level Estimated
Mon 05:50:00 PM 26.3785 -80.1077 270° West  Level Estimated
Mon 05:51:00 PM 26.3785 -80.1077 270° West  Level Estimated
Mon 05:52:00 PM 26.3785 -80.1077 270° West  Level Estimated
Mon 05:53:00 PM 26.3785 -80.1077 270° West  Level Estimated

Login

Don't have an account? Register now (free) for customized features, flight alerts, and more!